Terminal Aerodrome Forecast
Issued by NWS

Home | Current Version | Previous Version | Text Only | Print | Product List | Glossary On
Versions: 1 2 3 4 5 6 7 8 9 10 11 12
336
FTUS42 TJSJ 241120
TAFJSJ
TAF
TJSJ 241120Z 2412/2512 12004KT P6SM FEW035 BKN100
     FM241330 09012G20KT P6SM FEW025 SCT045
     FM241650 08016G22KT P6SM VCSH SCT025 SCT060 SCT090
     FM242100 09009KT P6SM FEW030 SCT100=

USA.gov is the U.S. government's official web portal to all federal, state and local government web resources and services.